This is the latest recevied weather packets stored in our database for station/object WB0OCV. If no packets are shown the sender has not sent any weather packets the latest 10 day(s).
| Time | Temp. | Humidity | Pressure | Rain* | Wind** | Luminosity | Snow |
|---|---|---|---|---|---|---|---|
| 1777485855 | 11.11° C | 79% | 1016.6 hPa | 0 mm | - | 419 W/m² | - |
| 1777485555 | 11.67° C | 78% | 1016.6 hPa | 0 mm | - | 437 W/m² | - |
| 1777485251 | 11.67° C | 78% | 1016.7 hPa | 0 mm | - | 427 W/m² | - |
| 1777484948 | 13.33° C | 74% | 1016.7 hPa | 0 mm | - | 502 W/m² | - |
| 1777484645 | 12.78° C | 75% | 1016.8 hPa | 0 mm | - | 705 W/m² | - |
| 1777484341 | 12.78° C | 72% | 1016.8 hPa | 0 mm | - | 948 W/m² | - |
| 1777484037 | 13.33° C | 74% | 1017 hPa | 0 mm | - | 503 W/m² | - |
| 1777483734 | 12.22° C | 77% | 1016.7 hPa | 0 mm | - | 693 W/m² | - |
| 1777483429 | 11.67° C | 78% | 1016.8 hPa | 0 mm | - | 871 W/m² | - |
| 1777483125 | 11.67° C | 77% | 1016.6 hPa | 0 mm | - | 534 W/m² | - |
| 1777482822 | 11.11° C | 78% | 1016.6 hPa | 0 mm | - | 420 W/m² | - |
| 1777482518 | 11.67° C | 77% | 1016.5 hPa | 0 mm | - | 534 W/m² | - |
| 1777482216 | 11.67° C | 76% | 1016.5 hPa | 0 mm | - | 689 W/m² | - |
| 1777481912 | 11.67° C | 77% | 1016.5 hPa | 0 mm | - | 467 W/m² | - |
| 1777481610 | 11.67° C | 78% | 1016.5 hPa | 0 mm | - | 783 W/m² | - |
| 1777481307 | 11.11° C | 78% | 1016.6 hPa | 0 mm | - | 439 W/m² | - |
| 1777481003 | 11.67° C | 76% | 1016.8 hPa | 0 mm | - | 964 W/m² | - |
| 1777480700 | 11.67° C | 77% | 1016.7 hPa | 0 mm | - | 890 W/m² | - |
| 1777480397 | 11.67° C | 78% | 1016.5 hPa | 0 mm | - | 802 W/m² | - |
| 1777480093 | 11.11° C | 77% | 1016.8 hPa | 0 mm | - | 870 W/m² | - |
| 1777479789 | 11.11° C | 79% | 1017 hPa | 0 mm | - | 753 W/m² | - |
| 1777479487 | 11.67° C | 79% | 1016.9 hPa | 0 mm | - | 570 W/m² | - |
| 1777479184 | 11.67° C | 79% | 1016.9 hPa | 0 mm | - | 711 W/m² | - |
| 1777478881 | 11.67° C | 78% | 1016.6 hPa | 0 mm | - | 924 W/m² | - |
| 1777478576 | 11.67° C | 78% | 1016.9 hPa | 0 mm | - | 601 W/m² | - |
* Rain latest hour (hover to see other rain measurements)
** Current wind speed in m/s (hover to see current wind gust speed)